createdAt,value
2018-03-03T00:01:20.757Z,162.83
2018-03-03T00:03:49.755Z,153.10
2018-03-03T00:06:18.753Z,158.20
2018-03-03T00:08:47.201Z,156.80
2018-03-03T00:11:15.597Z,163.70
2018-03-03T00:13:44.261Z,152.02
2018-03-03T00:16:12.653Z,136.60
2018-03-03T00:18:41.371Z,151.60
2018-03-03T00:21:09.753Z,142.93
2018-03-03T00:23:39.213Z,146.50
2018-03-03T00:26:07.603Z,162.90
2018-03-03T00:28:36.258Z,144.07
2018-03-03T00:31:04.654Z,155.60
2018-03-03T00:33:33.270Z,170.67
2018-03-03T00:36:01.938Z,144.73
2018-03-03T00:38:30.325Z,152.83
2018-03-03T00:40:58.934Z,149.00
2018-03-03T00:43:28.083Z,163.00
2018-03-03T00:45:56.514Z,140.53
2018-03-03T00:48:25.128Z,146.80
2018-03-03T00:50:53.525Z,142.87
2018-03-03T00:53:22.014Z,161.23
2018-03-03T00:55:50.406Z,155.93
2018-03-03T00:58:18.785Z,140.37
2018-03-03T01:00:47.425Z,139.67
2018-03-03T01:03:16.857Z,134.50
2018-03-03T01:05:45.332Z,155.20
2018-03-03T01:08:13.719Z,160.30
2018-03-03T01:10:42.417Z,153.15
2018-03-03T01:13:10.804Z,151.43
2018-03-03T01:15:39.320Z,153.47
2018-03-03T01:18:07.708Z,165.57
2018-03-03T01:20:36.373Z,144.23
2018-03-03T01:23:05.592Z,165.07
2018-03-03T01:25:35.016Z,138.98
2018-03-03T01:28:03.678Z,162.48
2018-03-03T01:30:32.054Z,163.63
2018-03-03T01:33:00.442Z,170.33
2018-03-03T01:35:28.818Z,149.60
2018-03-03T01:37:57.515Z,160.35
2018-03-03T01:40:26.418Z,169.55
2018-03-03T01:42:55.206Z,146.67
2018-03-03T01:45:24.402Z,152.57
2018-03-03T01:47:53.318Z,154.43
2018-03-03T01:50:21.702Z,140.50
2018-03-03T01:52:50.570Z,136.27
2018-03-03T01:55:19.237Z,139.48
2018-03-03T01:57:47.685Z,164.98
2018-03-03T02:00:16.734Z,144.50
2018-03-03T02:02:45.118Z,156.10
2018-03-03T02:05:13.793Z,163.67
2018-03-03T02:07:42.532Z,156.82
2018-03-03T02:10:11.974Z,157.73
2018-03-03T02:12:40.510Z,163.53
2018-03-03T02:15:09.945Z,180.20
2018-03-03T02:17:38.321Z,176.50
2018-03-03T02:20:07.073Z,162.62
2018-03-03T02:22:35.730Z,180.43
2018-03-03T02:25:04.926Z,161.87
2018-03-03T02:27:33.593Z,162.47
2018-03-03T02:30:01.990Z,146.53
2018-03-03T02:32:30.653Z,161.73
2018-03-03T02:34:59.078Z,173.17
2018-03-03T02:37:27.458Z,166.87
2018-03-03T02:39:56.913Z,161.33
2018-03-03T02:42:25.555Z,184.33
2018-03-03T02:44:54.993Z,183.15
2018-03-03T02:47:23.698Z,172.00
2018-03-03T02:49:52.249Z,149.00
2018-03-03T02:52:20.903Z,185.40
2018-03-03T02:54:49.289Z,163.40
2018-03-03T02:57:18.506Z,178.43
2018-03-03T02:59:47.064Z,159.93
2018-03-03T03:02:16.489Z,182.27
2018-03-03T03:04:45.066Z,186.97
2018-03-03T03:07:13.749Z,180.30
2018-03-03T03:09:42.228Z,169.07
2018-03-03T03:12:11.557Z,167.43
2018-03-03T03:14:39.939Z,168.27
2018-03-03T03:17:09.427Z,182.13
2018-03-03T03:19:38.482Z,199.30
2018-03-03T03:22:06.878Z,193.57
2018-03-03T03:24:35.274Z,190.70
2018-03-03T03:27:03.422Z,190.62
2018-03-03T03:29:32.062Z,182.43
2018-03-03T03:32:00.816Z,193.87
2018-03-03T03:34:29.671Z,185.63
2018-03-03T03:36:58.104Z,181.57
2018-03-03T03:39:26.541Z,178.77
2018-03-03T03:41:55.981Z,197.40
2018-03-03T03:44:24.663Z,188.90
2018-03-03T03:46:53.041Z,178.03
2018-03-03T03:49:21.835Z,207.12
2018-03-03T03:51:50.981Z,188.50
2018-03-03T03:54:20.430Z,188.40
2018-03-03T03:56:48.805Z,178.97
2018-03-03T03:59:17.198Z,185.47
2018-03-03T04:01:45.853Z,198.55
2018-03-03T04:04:14.265Z,172.33
2018-03-03T04:06:42.821Z,168.90
2018-03-03T04:09:11.221Z,177.97
2018-03-03T04:11:39.764Z,171.87
2018-03-03T04:14:08.162Z,176.63
2018-03-03T04:16:36.707Z,182.77
2018-03-03T04:19:05.857Z,198.23
2018-03-03T04:21:35.041Z,191.83
2018-03-03T04:24:03.249Z,193.00
2018-03-03T04:26:32.208Z,210.57
2018-03-03T04:29:00.570Z,169.97
2018-03-03T04:31:28.884Z,171.40
2018-03-03T04:33:57.570Z,163.73
2018-03-03T04:36:26.047Z,173.62
2018-03-03T04:38:54.818Z,164.40
2018-03-03T04:41:23.214Z,187.77
2018-03-03T04:46:15.725Z,174.70
2018-03-03T04:48:44.197Z,200.95
2018-03-03T04:51:12.393Z,173.33
2018-03-03T04:53:40.630Z,183.93
2018-03-03T04:56:08.851Z,188.60
2018-03-03T04:58:37.850Z,175.60
2018-03-03T05:01:24.821Z,166.30
2018-03-03T05:03:59.022Z,191.95
2018-03-03T05:06:28.086Z,185.43
2018-03-03T05:08:57.042Z,164.93
2018-03-03T05:11:25.427Z,175.33
2018-03-03T05:13:59.278Z,186.57
2018-03-03T05:16:28.270Z,164.70
2018-03-03T05:19:00.298Z,159.87
2018-03-03T05:21:34.241Z,166.73
2018-03-03T05:24:08.193Z,180.07
2018-03-03T05:26:43.157Z,156.23
2018-03-03T05:32:18.703Z,182.17
2018-03-03T05:38:00.597Z,202.45
2018-03-03T05:40:34.694Z,203.00
2018-03-03T05:43:08.529Z,184.33
2018-03-03T05:48:44.572Z,194.80
2018-03-03T05:51:18.546Z,167.57
2018-03-03T05:53:56.246Z,189.47
2018-03-03T05:59:35.012Z,197.60
2018-03-03T06:05:20.476Z,167.73
2018-03-03T06:07:59.182Z,183.00
2018-03-03T06:10:45.156Z,173.83
2018-03-03T06:13:13.820Z,160.90
2018-03-03T06:15:42.282Z,168.83
2018-03-03T06:18:11.719Z,179.52
2018-03-03T06:20:40.370Z,164.48
2018-03-03T06:23:09.012Z,179.40
2018-03-03T06:25:38.484Z,167.77
2018-03-03T06:28:07.079Z,150.97
2018-03-03T06:30:35.750Z,159.07
2018-03-03T06:33:04.140Z,158.50
2018-03-03T06:35:32.533Z,162.67
2018-03-03T06:38:00.730Z,151.53
2018-03-03T06:40:29.405Z,169.40
2018-03-03T06:42:58.558Z,178.07
2018-03-03T06:45:28.078Z,151.60
2018-03-03T06:47:57.394Z,171.73
2018-03-03T06:50:25.882Z,176.63
2018-03-03T06:52:54.502Z,163.03
2018-03-03T06:55:23.194Z,153.80
2018-03-03T06:57:51.597Z,161.37
2018-03-03T07:00:19.995Z,156.63
2018-03-03T07:02:48.642Z,145.57
2018-03-03T07:05:17.424Z,148.27
2018-03-03T07:07:46.075Z,158.50
2018-03-03T07:10:14.625Z,153.13
2018-03-03T07:12:43.045Z,143.80
2018-03-03T07:15:12.777Z,145.07
2018-03-03T07:17:41.554Z,145.83
2018-03-03T07:20:10.240Z,147.50
2018-03-03T07:22:38.641Z,142.90
2018-03-03T07:25:07.237Z,143.30
2018-03-03T07:27:35.638Z,152.00
2018-03-03T07:30:04.320Z,141.27
2018-03-03T07:32:32.834Z,139.00
2018-03-03T07:35:01.060Z,142.23
2018-03-03T07:37:29.458Z,136.93
2018-03-03T07:39:58.203Z,136.10
2018-03-03T07:42:26.604Z,127.73
2018-03-03T07:44:55.166Z,145.67
2018-03-03T07:47:23.553Z,127.30
2018-03-03T07:49:52.022Z,125.83
2018-03-03T07:52:20.724Z,121.57
2018-03-03T07:54:49.468Z,118.75
2018-03-03T07:57:17.960Z,111.87
2018-03-03T07:59:46.794Z,123.05
2018-03-03T08:02:15.587Z,123.03
2018-03-03T08:04:44.078Z,123.72
2018-03-03T08:07:13.048Z,127.40
2018-03-03T08:09:41.513Z,131.25
2018-03-03T08:12:10.132Z,124.27
2018-03-03T08:14:39.093Z,148.33
2018-03-03T08:17:07.569Z,142.45
2018-03-03T08:19:36.149Z,131.37
2018-03-03T08:22:04.536Z,121.67
2018-03-03T08:24:33.181Z,136.30
2018-03-03T08:27:01.579Z,147.43
2018-03-03T08:29:31.008Z,147.30
2018-03-03T08:31:59.470Z,127.10
2018-03-03T08:34:27.847Z,141.37
2018-03-03T08:36:56.230Z,137.37
2018-03-03T08:39:24.894Z,149.32
2018-03-03T08:41:53.527Z,141.87
2018-03-03T08:44:22.051Z,148.70
2018-03-03T08:46:51.481Z,141.60
2018-03-03T08:49:19.986Z,138.80
2018-03-03T08:51:48.654Z,145.73
2018-03-03T08:54:17.050Z,141.97
2018-03-03T08:56:45.518Z,145.03
2018-03-03T08:59:14.182Z,167.83
2018-03-03T09:01:42.682Z,134.77
2018-03-03T09:04:11.446Z,149.10
2018-03-03T09:06:40.122Z,144.98
2018-03-03T09:09:09.117Z,131.93
2018-03-03T09:11:37.885Z,140.37
2018-03-03T09:14:07.310Z,128.18
2018-03-03T09:16:36.505Z,144.40
2018-03-03T09:19:05.170Z,122.13
2018-03-03T09:21:33.648Z,134.70
2018-03-03T09:24:02.378Z,143.20
2018-03-03T09:26:30.927Z,127.07
2018-03-03T09:28:59.703Z,127.85
2018-03-03T09:31:28.083Z,130.60
2018-03-03T09:33:57.505Z,128.25
2018-03-03T09:36:25.901Z,138.33
2018-03-03T09:38:54.564Z,156.48
2018-03-03T09:41:23.211Z,148.38
2018-03-03T09:43:52.362Z,134.00
2018-03-03T09:46:20.919Z,148.63
2018-03-03T09:48:49.313Z,156.63
2018-03-03T09:51:17.969Z,152.32
2018-03-03T09:53:46.358Z,151.90
2018-03-03T09:56:14.732Z,145.13
2018-03-03T09:58:44.162Z,145.70
2018-03-03T10:01:12.450Z,142.63
2018-03-03T10:03:40.874Z,159.63
2018-03-03T10:06:10.078Z,159.63
2018-03-03T10:08:38.562Z,138.00
2018-03-03T10:11:07.074Z,148.10
2018-03-03T10:13:35.722Z,160.27
2018-03-03T10:16:05.158Z,171.13
2018-03-03T10:18:33.550Z,153.60
2018-03-03T10:21:02.642Z,145.90
2018-03-03T10:23:31.796Z,156.40
2018-03-03T10:26:01.234Z,143.50
2018-03-03T10:28:29.618Z,148.20
2018-03-03T10:30:57.997Z,155.03
2018-03-03T10:33:26.443Z,144.80
2018-03-03T10:35:55.111Z,148.40
2018-03-03T10:38:23.533Z,140.60
2018-03-03T10:40:51.589Z,149.77
2018-03-03T10:43:20.052Z,147.70
2018-03-03T10:45:49.065Z,148.77
2018-03-03T10:48:17.453Z,143.27
2018-03-03T10:50:46.183Z,139.18
2018-03-03T10:53:15.624Z,153.63
2018-03-03T10:55:44.293Z,139.73
2018-03-03T10:58:12.348Z,130.23
2018-03-03T11:00:41.614Z,146.30
2018-03-03T11:03:10.765Z,128.43
2018-03-03T11:05:39.429Z,140.80
2018-03-03T11:08:08.526Z,129.93
2018-03-03T11:10:36.898Z,136.30
2018-03-03T11:13:06.336Z,127.72
2018-03-03T11:15:34.774Z,126.63
2018-03-03T11:18:03.174Z,132.40
2018-03-03T11:20:32.588Z,127.28
2018-03-03T11:23:00.983Z,128.17
2018-03-03T11:25:29.650Z,116.90
2018-03-03T11:27:58.038Z,128.83
2018-03-03T11:30:26.698Z,120.85
2018-03-03T11:32:55.086Z,142.17
2018-03-03T11:35:23.461Z,138.97
2018-03-03T11:37:52.114Z,142.40
2018-03-03T11:40:21.334Z,137.87
2018-03-03T11:42:50.034Z,142.13
2018-03-03T11:45:18.426Z,131.23
2018-03-03T11:47:46.873Z,130.93
2018-03-03T11:50:15.353Z,133.33
2018-03-03T11:52:43.739Z,140.60
2018-03-03T11:55:12.129Z,148.00
2018-03-03T11:57:40.689Z,148.40
2018-03-03T12:00:09.077Z,137.07
2018-03-03T12:02:37.472Z,127.47
2018-03-03T12:05:06.171Z,138.37
2018-03-03T12:07:34.548Z,138.70
2018-03-03T12:10:02.945Z,126.27
2018-03-03T12:12:31.329Z,114.47
2018-03-03T12:14:59.991Z,123.03
2018-03-03T12:17:28.588Z,110.00
2018-03-03T12:19:57.153Z,117.70
2018-03-03T12:22:25.530Z,128.77
2018-03-03T12:24:54.037Z,119.33
2018-03-03T12:27:22.705Z,127.20
2018-03-03T12:29:51.344Z,125.67
2018-03-03T12:32:19.773Z,114.50
2018-03-03T12:34:48.194Z,118.27
2018-03-03T12:37:16.844Z,112.60
2018-03-03T12:39:45.404Z,118.17
2018-03-03T12:42:13.793Z,105.47
2018-03-03T12:44:42.165Z,115.37
2018-03-03T12:47:10.989Z,103.30
2018-03-03T12:49:40.134Z,114.83
2018-03-03T12:52:08.933Z,99.57
2018-03-03T12:54:37.317Z,130.93
2018-03-03T12:57:06.488Z,112.30
2018-03-03T12:59:34.995Z,123.33
2018-03-03T13:02:03.401Z,105.87
2018-03-03T13:04:32.549Z,100.27
2018-03-03T13:07:00.937Z,98.70
2018-03-03T13:09:29.476Z,108.77
2018-03-03T13:11:58.927Z,103.95
2018-03-03T13:14:27.305Z,111.20
2018-03-03T13:16:55.987Z,121.07
2018-03-03T13:19:24.377Z,106.60
2018-03-03T13:21:53.029Z,107.03
2018-03-03T13:24:22.440Z,104.10
2018-03-03T13:26:50.831Z,109.80
2018-03-03T13:29:19.201Z,113.40
2018-03-03T13:31:47.585Z,107.00
2018-03-03T13:34:16.180Z,105.30
2018-03-03T13:36:44.772Z,90.47
2018-03-03T13:39:13.914Z,97.53
2018-03-03T13:41:42.492Z,94.07
2018-03-03T13:44:11.997Z,97.03
2018-03-03T13:46:40.657Z,91.60
2018-03-03T13:49:09.858Z,93.10
2018-03-03T13:51:38.517Z,104.82
2018-03-03T13:54:06.909Z,95.43
2018-03-03T13:56:36.339Z,98.12
2018-03-03T13:59:04.970Z,94.67
2018-03-03T14:01:33.553Z,86.93
2018-03-03T14:04:02.292Z,90.40
2018-03-03T14:06:30.677Z,105.07
2018-03-03T14:08:59.085Z,92.60
2018-03-03T14:11:27.470Z,88.20
2018-03-03T14:13:56.090Z,102.40
2018-03-03T14:16:24.741Z,105.95
2018-03-03T14:18:53.133Z,105.33
2018-03-03T14:21:22.369Z,96.10
2018-03-03T14:23:50.777Z,103.00
2018-03-03T14:26:19.424Z,100.03
2018-03-03T14:28:48.251Z,100.57
2018-03-03T14:31:17.303Z,89.33
2018-03-03T14:33:45.744Z,79.27
2018-03-03T14:36:14.548Z,91.15
2018-03-03T14:38:42.973Z,90.77
2018-03-03T14:41:11.545Z,94.33
2018-03-03T14:43:40.858Z,92.07
2018-03-03T14:46:09.512Z,81.80
2018-03-03T14:48:38.182Z,83.37
2018-03-03T14:51:07.688Z,86.07
2018-03-03T14:53:36.556Z,80.22
2018-03-03T14:56:04.942Z,83.87
2018-03-03T14:58:33.626Z,79.97
2018-03-03T15:01:02.041Z,84.50
2018-03-03T15:03:31.450Z,79.72
2018-03-03T15:05:59.866Z,83.07
2018-03-03T15:08:28.527Z,77.03
2018-03-03T15:10:57.195Z,72.47
2018-03-03T15:13:25.787Z,93.53
2018-03-03T15:15:54.127Z,82.87
2018-03-03T15:18:22.239Z,81.90
2018-03-03T15:20:50.851Z,81.80
2018-03-03T15:23:19.541Z,79.90
2018-03-03T15:25:47.880Z,79.90
2018-03-03T15:28:16.257Z,73.40
2018-03-03T15:30:44.647Z,96.47
2018-03-03T15:33:13.204Z,81.83
2018-03-03T15:35:43.143Z,81.10
2018-03-03T15:38:11.794Z,87.00
2018-03-03T15:40:41.306Z,102.60
2018-03-03T15:43:09.679Z,89.03
2018-03-03T15:45:39.106Z,88.55
2018-03-03T15:48:07.498Z,98.20
2018-03-03T15:50:36.242Z,78.23
2018-03-03T15:53:04.828Z,94.97
2018-03-03T15:55:34.154Z,88.33
2018-03-03T15:58:02.802Z,94.47
2018-03-03T16:00:31.186Z,80.80
2018-03-03T16:02:59.681Z,96.17
2018-03-03T16:05:28.066Z,90.37
2018-03-03T16:07:57.049Z,93.00
2018-03-03T16:10:25.468Z,89.90
2018-03-03T16:12:54.130Z,91.75
2018-03-03T16:15:22.521Z,101.00
2018-03-03T16:17:50.731Z,90.43
2018-03-03T16:20:19.404Z,97.32
2018-03-03T16:22:48.605Z,93.90
2018-03-03T16:25:17.463Z,100.78
2018-03-03T16:27:46.167Z,101.43
2018-03-03T16:30:14.796Z,108.47
2018-03-03T16:32:43.237Z,101.90
2018-03-03T16:35:11.835Z,107.50
2018-03-03T16:37:41.191Z,100.57
2018-03-03T16:40:09.854Z,87.82
2018-03-03T16:42:38.528Z,90.60
2018-03-03T16:45:07.084Z,104.47
2018-03-03T16:47:36.820Z,92.73
2018-03-03T16:50:05.805Z,92.82
2018-03-03T16:52:34.626Z,83.10
2018-03-03T16:55:03.009Z,91.37
2018-03-03T16:57:31.705Z,97.73
2018-03-03T17:00:00.222Z,97.13
2018-03-03T17:02:29.146Z,96.00
2018-03-03T17:04:57.896Z,95.40
2018-03-03T17:07:26.979Z,87.37
2018-03-03T17:09:55.668Z,99.30
2018-03-03T17:12:24.824Z,95.10
2018-03-03T17:14:53.477Z,99.50
2018-03-03T17:17:21.867Z,87.93
2018-03-03T17:19:50.249Z,93.60
2018-03-03T17:22:19.893Z,93.80
2018-03-03T17:24:48.313Z,88.30
2018-03-03T17:27:16.947Z,91.93
2018-03-03T17:29:45.644Z,85.13
2018-03-03T17:32:14.872Z,95.63
2018-03-03T17:34:43.777Z,98.43
2018-03-03T17:37:12.337Z,84.60
2018-03-03T17:39:41.681Z,84.43
2018-03-03T17:42:10.077Z,93.50
2018-03-03T17:44:38.538Z,91.35
2018-03-03T17:47:06.995Z,88.17
2018-03-03T17:49:36.429Z,119.00
2018-03-03T17:52:04.823Z,100.73
2018-03-03T17:54:33.475Z,94.28
2018-03-03T17:57:01.863Z,91.30
2018-03-03T17:59:30.535Z,88.95
2018-03-03T18:01:59.205Z,95.87
2018-03-03T18:04:28.091Z,93.65
2018-03-03T18:06:56.475Z,91.27
2018-03-03T18:09:25.898Z,105.30
2018-03-03T18:11:59.936Z,87.10
2018-03-03T18:14:29.435Z,86.67
2018-03-03T18:16:58.091Z,85.15
2018-03-03T18:19:41.129Z,83.85
2018-03-03T18:22:09.514Z,101.43
2018-03-03T18:24:38.092Z,87.90
2018-03-03T18:27:06.750Z,88.55
2018-03-03T18:29:35.147Z,93.30
2018-03-03T18:32:03.537Z,91.00
2018-03-03T18:34:31.938Z,93.80
2018-03-03T18:37:00.459Z,104.83
2018-03-03T18:39:28.906Z,94.57
2018-03-03T18:41:58.090Z,89.97
2018-03-03T18:44:27.715Z,93.95
2018-03-03T18:46:57.286Z,90.30
2018-03-03T18:49:26.849Z,104.00
2018-03-03T18:51:55.373Z,102.70
2018-03-03T18:54:23.826Z,101.80
2018-03-03T18:56:52.222Z,107.87
2018-03-03T18:59:20.615Z,106.97
2018-03-03T19:01:49.181Z,101.97
2018-03-03T19:04:17.875Z,106.63
2018-03-03T19:06:46.370Z,95.27
2018-03-03T19:09:15.206Z,97.90
2018-03-03T19:11:44.338Z,102.20
2018-03-03T19:14:12.732Z,95.27
2018-03-03T19:16:41.302Z,86.63
2018-03-03T19:19:09.689Z,88.47
2018-03-03T19:21:39.100Z,85.13
2018-03-03T19:24:14.151Z,83.37
2018-03-03T19:26:56.453Z,101.70
2018-03-03T19:29:38.206Z,95.40
2018-03-03T19:32:08.078Z,88.10
2018-03-03T19:34:52.824Z,112.32
2018-03-03T19:37:22.674Z,86.90
2018-03-03T19:39:51.249Z,102.27
2018-03-03T19:42:19.642Z,90.33
2018-03-03T19:44:48.309Z,101.18
2018-03-03T19:47:16.915Z,89.80
2018-03-03T19:49:45.459Z,99.97
2018-03-03T19:52:18.580Z,99.77
2018-03-03T19:54:46.978Z,91.93
2018-03-03T19:57:19.618Z,93.23
2018-03-03T19:59:49.031Z,93.37
2018-03-03T20:02:18.248Z,94.27
2018-03-03T20:04:47.541Z,104.27
2018-03-03T20:07:16.218Z,102.90
2018-03-03T20:09:44.663Z,98.17
2018-03-03T20:12:13.187Z,92.67
2018-03-03T20:14:41.732Z,99.65
2018-03-03T20:17:10.134Z,90.10
2018-03-03T20:19:38.533Z,96.80
2018-03-03T20:22:06.923Z,108.80
2018-03-03T20:24:35.491Z,111.73
2018-03-03T20:27:04.181Z,92.17
2018-03-03T20:29:32.578Z,110.60
2018-03-03T20:32:01.733Z,100.43
2018-03-03T20:34:30.224Z,105.03
2018-03-03T20:36:58.773Z,97.43
2018-03-03T20:39:27.269Z,99.67
2018-03-03T20:41:56.673Z,116.70
2018-03-03T20:44:25.280Z,109.47
2018-03-03T20:46:54.048Z,97.73
2018-03-03T20:49:22.734Z,99.30
2018-03-03T20:51:51.126Z,108.20
2018-03-03T20:54:19.780Z,107.47
2018-03-03T20:56:48.425Z,119.50
2018-03-03T20:59:17.755Z,99.83
2018-03-03T21:01:46.218Z,103.70
2018-03-03T21:04:14.910Z,96.40
2018-03-03T21:06:44.135Z,98.27
2018-03-03T21:09:13.066Z,110.47
2018-03-03T21:11:54.722Z,104.70
2018-03-03T21:14:23.792Z,113.67
2018-03-03T21:16:52.781Z,112.20
2018-03-03T21:19:21.434Z,103.87
2018-03-03T21:21:50.104Z,97.53
2018-03-03T21:24:18.817Z,100.70
2018-03-03T21:26:47.110Z,118.60
2018-03-03T21:29:15.530Z,89.40
2018-03-03T21:31:44.202Z,92.57
2018-03-03T21:34:13.038Z,105.45
2018-03-03T21:36:41.693Z,114.15
2018-03-03T21:39:10.089Z,105.97
2018-03-03T21:41:38.769Z,103.65
2018-03-03T21:44:07.483Z,105.35
2018-03-03T21:46:37.000Z,105.35
2018-03-03T21:49:05.687Z,109.35
2018-03-03T21:51:34.161Z,88.20
2018-03-03T21:54:02.775Z,105.53
2018-03-03T21:56:31.165Z,107.17
2018-03-03T21:58:59.846Z,107.97
2018-03-03T22:01:28.253Z,117.03
2018-03-03T22:03:57.726Z,105.73
2018-03-03T22:06:26.207Z,110.07
2018-03-03T22:08:54.896Z,97.25
2018-03-03T22:11:23.379Z,106.40
2018-03-03T22:13:52.060Z,97.57
2018-03-03T22:16:20.515Z,105.77
2018-03-03T22:18:50.454Z,100.07
2018-03-03T22:21:19.114Z,99.37
2018-03-03T22:23:47.739Z,117.60
2018-03-03T22:26:16.469Z,109.47
2018-03-03T22:28:44.870Z,108.27
2018-03-03T22:31:13.282Z,115.63
2018-03-03T22:33:41.686Z,116.57
2018-03-03T22:36:10.358Z,101.37
2018-03-03T22:38:38.828Z,99.50
2018-03-03T22:41:07.975Z,114.43
2018-03-03T22:43:36.370Z,118.13
2018-03-03T22:46:04.838Z,113.03
2018-03-03T22:48:33.233Z,121.20
2018-03-03T22:51:01.904Z,114.70
2018-03-03T22:53:30.518Z,109.43
2018-03-03T22:55:58.780Z,100.07
2018-03-03T22:58:27.175Z,103.27
2018-03-03T23:00:55.660Z,108.30
2018-03-03T23:03:24.329Z,104.00
2018-03-03T23:05:53.062Z,126.40
2018-03-03T23:08:21.815Z,101.57
2018-03-03T23:10:51.043Z,115.17
2018-03-03T23:13:19.431Z,114.10
2018-03-03T23:15:48.544Z,103.72
2018-03-03T23:18:17.044Z,106.37
2018-03-03T23:20:45.446Z,102.07
2018-03-03T23:23:14.107Z,107.10
2018-03-03T23:25:42.778Z,101.23
2018-03-03T23:28:11.406Z,106.57
2018-03-03T23:30:40.589Z,102.13
2018-03-03T23:33:09.418Z,103.15
2018-03-03T23:35:38.102Z,110.13
2018-03-03T23:38:06.494Z,102.53
2018-03-03T23:40:35.512Z,107.00
2018-03-03T23:43:03.894Z,129.50
2018-03-03T23:45:32.297Z,117.30
2018-03-03T23:48:00.954Z,112.20
2018-03-03T23:50:29.346Z,126.63
2018-03-03T23:52:58.105Z,105.53
2018-03-03T23:55:26.634Z,115.93
2018-03-03T23:57:55.779Z,127.10
